createdAt,value
2023-03-31T00:01:34.274Z,2.50
2023-03-31T00:03:25.620Z,2.50
2023-03-31T00:05:18.404Z,2.90
2023-03-31T00:07:10.032Z,2.50
2023-03-31T00:09:02.050Z,3.30
2023-03-31T00:10:53.392Z,3.70
2023-03-31T00:12:45.409Z,3.30
2023-03-31T00:14:36.720Z,3.10
2023-03-31T00:16:28.477Z,2.70
2023-03-31T00:18:21.073Z,2.30
2023-03-31T00:20:12.856Z,2.90
2023-03-31T00:22:05.489Z,2.10
2023-03-31T00:23:59.130Z,2.00
2023-03-31T00:25:50.534Z,2.30
2023-03-31T00:27:44.453Z,2.30
2023-03-31T00:29:36.061Z,3.20
2023-03-31T00:31:28.384Z,1.60
2023-03-31T00:33:19.966Z,3.00
2023-03-31T00:35:11.569Z,3.00
2023-03-31T00:37:04.091Z,3.40
2023-03-31T00:40:53.418Z,3.10
2023-03-31T00:42:46.520Z,3.50
2023-03-31T00:44:59.956Z,3.90
2023-03-31T00:46:57.214Z,3.80
2023-03-31T00:48:52.079Z,2.50
2023-03-31T00:50:49.318Z,3.20
2023-03-31T00:52:41.466Z,4.80
2023-03-31T00:54:33.979Z,2.40
2023-03-31T00:56:27.064Z,4.30
2023-03-31T00:58:20.860Z,3.70
2023-03-31T01:00:16.844Z,3.30
2023-03-31T01:02:08.852Z,3.70
2023-03-31T01:04:00.271Z,4.10
2023-03-31T01:06:07.183Z,3.80
2023-03-31T01:07:59.920Z,4.60
2023-03-31T01:09:54.305Z,3.20
2023-03-31T01:11:47.911Z,4.70
2023-03-31T01:13:40.546Z,4.50
2023-03-31T01:15:32.040Z,5.20
2023-03-31T01:17:25.086Z,4.30
2023-03-31T01:19:46.187Z,4.40
2023-03-31T01:21:40.622Z,4.20
2023-03-31T01:26:15.442Z,4.70
2023-03-31T01:28:25.515Z,4.60
2023-03-31T01:30:47.419Z,4.90
2023-03-31T01:32:58.893Z,6.90
2023-03-31T01:35:38.563Z,6.10
2023-03-31T01:37:57.770Z,4.80
2023-03-31T01:40:18.000Z,3.50
2023-03-31T01:42:22.800Z,4.60
2023-03-31T01:44:24.001Z,4.70
2023-03-31T01:46:30.866Z,3.30
2023-03-31T01:48:47.857Z,3.00
2023-03-31T01:50:52.674Z,3.10
2023-03-31T01:52:49.844Z,2.80
2023-03-31T01:54:52.206Z,2.50
2023-03-31T01:56:52.700Z,2.80
2023-03-31T01:59:00.806Z,3.10
2023-03-31T02:01:02.197Z,2.90
2023-03-31T02:03:12.705Z,2.80
2023-03-31T02:05:10.965Z,3.20
2023-03-31T02:09:00.665Z,2.90
2023-03-31T02:10:52.651Z,3.40
2023-03-31T02:12:45.381Z,3.60
2023-03-31T02:16:32.373Z,2.90
2023-03-31T02:18:26.708Z,3.00
2023-03-31T02:20:20.327Z,3.00
2023-03-31T02:22:13.141Z,3.10
2023-03-31T02:26:16.618Z,2.80
2023-03-31T02:28:13.277Z,2.70
2023-03-31T02:30:06.966Z,3.00
2023-03-31T02:32:06.900Z,2.50
2023-03-31T02:33:58.612Z,2.60
2023-03-31T02:35:50.527Z,3.00
2023-03-31T02:37:43.838Z,3.40
2023-03-31T02:39:37.104Z,5.40
2023-03-31T02:45:28.248Z,9.30
2023-03-31T02:47:21.790Z,8.80
2023-03-31T02:49:14.250Z,7.70
2023-03-31T02:51:13.555Z,7.00
2023-03-31T02:53:28.188Z,6.30
2023-03-31T02:55:37.754Z,6.40
2023-03-31T02:58:06.841Z,4.80
2023-03-31T03:00:09.693Z,4.70
2023-03-31T03:02:07.327Z,5.30
2023-03-31T03:04:09.641Z,4.70
2023-03-31T03:06:30.481Z,3.70
2023-03-31T03:09:00.695Z,4.10
2023-03-31T03:11:07.055Z,3.60
2023-03-31T03:13:11.681Z,3.70
2023-03-31T03:15:10.710Z,3.60
2023-03-31T03:17:07.530Z,4.00
2023-03-31T03:19:05.162Z,3.50
2023-03-31T03:20:56.720Z,3.30
2023-03-31T03:22:48.161Z,3.10
2023-03-31T03:24:39.963Z,4.00
2023-03-31T03:26:35.390Z,3.40
2023-03-31T03:28:27.075Z,4.00
2023-03-31T03:30:19.105Z,4.00
2023-03-31T03:32:11.049Z,5.00
2023-03-31T03:34:03.344Z,4.30
2023-03-31T03:35:54.804Z,4.30
2023-03-31T03:37:46.781Z,4.60
2023-03-31T03:39:38.244Z,4.50
2023-03-31T03:41:30.351Z,4.50
2023-03-31T03:43:22.112Z,3.60
2023-03-31T03:45:13.774Z,5.00
2023-03-31T03:47:05.428Z,5.00
2023-03-31T03:48:57.020Z,4.80
2023-03-31T03:50:48.577Z,4.80
2023-03-31T03:52:40.510Z,4.80
2023-03-31T03:54:32.370Z,5.00
2023-03-31T03:56:24.046Z,4.70
2023-03-31T03:58:17.349Z,5.10
2023-03-31T04:00:12.843Z,4.80
2023-03-31T04:02:04.794Z,4.70
2023-03-31T04:03:56.594Z,4.70
2023-03-31T04:05:50.143Z,4.80
2023-03-31T04:07:41.712Z,4.80
2023-03-31T04:09:33.312Z,5.00
2023-03-31T04:11:26.145Z,5.80
2023-03-31T04:13:20.198Z,5.30
2023-03-31T04:15:11.989Z,4.80
2023-03-31T04:17:03.632Z,5.30
2023-03-31T04:18:59.019Z,4.20
2023-03-31T04:21:05.697Z,4.50
2023-03-31T04:22:56.855Z,4.70
2023-03-31T04:24:52.837Z,4.70
2023-03-31T04:26:44.165Z,5.20
2023-03-31T04:28:36.807Z,5.40
2023-03-31T04:30:31.181Z,5.10
2023-03-31T04:32:23.301Z,5.30
2023-03-31T04:34:15.690Z,4.80
2023-03-31T04:36:20.351Z,4.20
2023-03-31T04:38:11.978Z,4.50
2023-03-31T04:40:08.147Z,5.00
2023-03-31T04:42:00.904Z,5.10
2023-03-31T04:43:52.564Z,4.60
2023-03-31T04:45:43.777Z,5.20
2023-03-31T04:47:35.349Z,5.60
2023-03-31T04:49:26.537Z,5.00
2023-03-31T04:51:18.067Z,6.40
2023-03-31T04:53:09.862Z,8.10
2023-03-31T04:55:01.523Z,8.60
2023-03-31T04:56:53.204Z,14.60
2023-03-31T04:58:44.882Z,12.70
2023-03-31T05:00:36.654Z,11.90
2023-03-31T05:02:28.230Z,10.40
2023-03-31T05:04:19.938Z,10.20
2023-03-31T05:06:12.027Z,9.50
2023-03-31T05:08:04.050Z,8.70
2023-03-31T05:09:55.713Z,9.60
2023-03-31T05:11:47.248Z,6.90
2023-03-31T05:13:39.004Z,7.40
2023-03-31T05:15:30.463Z,6.70
2023-03-31T05:17:22.418Z,6.70
2023-03-31T05:19:13.840Z,9.60
2023-03-31T05:21:13.612Z,8.50
2023-03-31T05:23:05.362Z,8.10
2023-03-31T05:24:56.959Z,6.00
2023-03-31T05:26:53.133Z,6.30
2023-03-31T05:28:44.829Z,6.20
2023-03-31T05:30:36.832Z,6.30
2023-03-31T05:32:28.870Z,5.00
2023-03-31T05:34:20.478Z,5.90
2023-03-31T05:36:15.563Z,5.40
2023-03-31T05:38:06.733Z,5.10
2023-03-31T05:39:58.892Z,4.60
2023-03-31T05:41:50.501Z,5.10
2023-03-31T05:43:43.286Z,4.70
2023-03-31T05:45:35.176Z,4.00
2023-03-31T05:47:27.141Z,2.80
2023-03-31T05:49:18.711Z,2.60
2023-03-31T05:51:10.689Z,4.30
2023-03-31T05:53:02.015Z,4.10
2023-03-31T05:54:53.631Z,3.60
2023-03-31T05:56:45.391Z,3.20
2023-03-31T05:58:37.609Z,3.10
2023-03-31T06:00:29.041Z,4.10
2023-03-31T06:02:20.382Z,2.50
2023-03-31T06:04:12.233Z,4.00
2023-03-31T06:06:20.430Z,3.60
2023-03-31T06:08:11.884Z,3.40
2023-03-31T06:10:03.781Z,4.20
2023-03-31T06:11:54.862Z,4.20
2023-03-31T06:13:46.278Z,4.20
2023-03-31T06:15:38.168Z,3.90
2023-03-31T06:17:29.787Z,5.80
2023-03-31T06:19:21.414Z,6.10
2023-03-31T06:21:16.672Z,4.30
2023-03-31T06:23:07.780Z,6.20
2023-03-31T06:24:59.475Z,4.50
2023-03-31T06:26:53.145Z,3.50
2023-03-31T06:28:46.692Z,4.10
2023-03-31T06:30:37.886Z,5.60
2023-03-31T06:32:29.279Z,3.80
2023-03-31T06:34:21.755Z,3.90
2023-03-31T06:36:14.886Z,3.80
2023-03-31T06:38:07.164Z,4.90
2023-03-31T06:39:58.854Z,3.00
2023-03-31T06:41:50.050Z,4.50
2023-03-31T06:43:41.973Z,2.80
2023-03-31T06:45:33.747Z,3.30
2023-03-31T06:47:24.938Z,3.90
2023-03-31T06:49:16.470Z,4.00
2023-03-31T06:51:08.912Z,2.70
2023-03-31T06:53:00.492Z,4.10
2023-03-31T06:54:52.130Z,4.60
2023-03-31T06:56:43.690Z,3.20
2023-03-31T06:58:35.738Z,2.60
2023-03-31T07:00:27.576Z,3.60
2023-03-31T07:02:19.271Z,3.20
2023-03-31T07:04:11.112Z,2.10
2023-03-31T07:06:02.418Z,3.60
2023-03-31T07:07:55.354Z,2.90
2023-03-31T07:09:46.780Z,3.90
2023-03-31T07:11:38.625Z,2.50
2023-03-31T07:13:30.416Z,4.40
2023-03-31T07:15:22.356Z,2.80
2023-03-31T07:17:13.738Z,3.20
2023-03-31T07:19:05.944Z,3.90
2023-03-31T07:20:59.047Z,3.70
2023-03-31T07:23:10.599Z,10.40
2023-03-31T07:25:02.211Z,3.20
2023-03-31T07:26:53.460Z,4.00
2023-03-31T07:28:44.810Z,3.20
2023-03-31T07:30:36.825Z,4.40
2023-03-31T07:32:29.217Z,4.50
2023-03-31T07:34:20.577Z,4.20
2023-03-31T07:36:13.823Z,3.60
2023-03-31T07:38:05.869Z,4.00
2023-03-31T07:39:56.962Z,3.10
2023-03-31T07:41:48.226Z,2.50
2023-03-31T07:44:38.567Z,3.50
2023-03-31T07:46:30.947Z,4.00
2023-03-31T07:48:22.416Z,4.00
2023-03-31T07:50:15.684Z,4.20
2023-03-31T07:52:07.362Z,3.70
2023-03-31T07:53:59.228Z,3.50
2023-03-31T07:55:51.088Z,6.00
2023-03-31T07:57:43.624Z,3.90
2023-03-31T07:59:35.625Z,3.80
2023-03-31T08:01:29.026Z,5.10
2023-03-31T08:03:21.019Z,4.50
2023-03-31T08:05:14.221Z,4.30
2023-03-31T08:07:06.054Z,4.10
2023-03-31T08:08:58.435Z,4.80
2023-03-31T08:10:50.115Z,3.50
2023-03-31T08:12:41.820Z,2.90
2023-03-31T08:14:40.491Z,2.80
2023-03-31T08:16:32.819Z,4.10
2023-03-31T08:18:24.374Z,3.20
2023-03-31T08:20:16.107Z,3.20
2023-03-31T08:22:07.513Z,3.70
2023-03-31T08:23:59.467Z,4.40
2023-03-31T08:25:52.279Z,3.00
2023-03-31T08:27:43.826Z,3.20
2023-03-31T08:29:35.517Z,3.50
2023-03-31T08:31:29.253Z,4.30
2023-03-31T08:33:20.485Z,4.30
2023-03-31T08:35:12.284Z,4.20
2023-03-31T08:37:05.615Z,4.10
2023-03-31T08:38:57.788Z,3.60
2023-03-31T08:40:49.296Z,4.30
2023-03-31T08:42:50.015Z,2.60
2023-03-31T08:45:19.918Z,3.60
2023-03-31T08:47:17.145Z,3.70
2023-03-31T08:49:15.000Z,3.60
2023-03-31T08:53:36.169Z,3.90
2023-03-31T08:55:36.387Z,3.30
2023-03-31T08:57:38.251Z,4.00
2023-03-31T08:59:32.686Z,3.80
2023-03-31T09:01:37.949Z,3.00
2023-03-31T09:03:51.191Z,2.20
2023-03-31T09:06:00.962Z,2.00
2023-03-31T09:10:07.587Z,3.00
2023-03-31T09:12:08.059Z,2.60
2023-03-31T09:14:13.785Z,2.70
2023-03-31T09:16:16.316Z,2.30
2023-03-31T09:18:35.563Z,2.80
2023-03-31T09:20:37.333Z,1.90
2023-03-31T09:22:34.245Z,3.00
2023-03-31T09:24:40.977Z,2.80
2023-03-31T09:26:41.394Z,2.10
2023-03-31T09:28:39.037Z,2.50
2023-03-31T09:30:34.098Z,2.00
2023-03-31T09:32:29.362Z,2.20
2023-03-31T09:34:33.758Z,2.10
2023-03-31T09:36:25.897Z,2.90
2023-03-31T09:38:17.256Z,2.00
2023-03-31T09:40:17.232Z,2.60
2023-03-31T09:42:12.980Z,2.00
2023-03-31T09:44:05.003Z,2.80
2023-03-31T09:46:09.149Z,2.40
2023-03-31T09:48:06.832Z,2.60
2023-03-31T09:49:58.613Z,2.00
2023-03-31T09:52:07.173Z,2.40
2023-03-31T09:54:05.664Z,2.30
2023-03-31T09:56:02.234Z,2.30
2023-03-31T09:57:54.049Z,2.50
2023-03-31T09:59:51.681Z,2.00
2023-03-31T10:01:47.624Z,5.50
2023-03-31T10:03:58.395Z,2.70
2023-03-31T10:05:54.798Z,2.80
2023-03-31T10:07:46.426Z,3.00
2023-03-31T10:09:38.943Z,3.40
2023-03-31T10:13:30.870Z,2.90
2023-03-31T10:15:27.480Z,2.40
2023-03-31T10:17:25.504Z,3.20
2023-03-31T10:19:22.234Z,3.10
2023-03-31T10:21:26.135Z,2.90
2023-03-31T10:23:35.566Z,3.10
2023-03-31T10:25:28.719Z,2.20
2023-03-31T10:27:26.324Z,3.30
2023-03-31T10:29:30.966Z,2.90
2023-03-31T10:31:26.281Z,2.30
2023-03-31T10:33:25.149Z,2.50
2023-03-31T10:35:23.264Z,2.60
2023-03-31T10:37:22.700Z,2.70
2023-03-31T10:39:16.986Z,3.30
2023-03-31T10:41:08.684Z,2.10
2023-03-31T10:43:20.490Z,2.20
2023-03-31T10:45:37.820Z,2.10
2023-03-31T10:47:33.353Z,1.90
2023-03-31T10:49:27.086Z,1.80
2023-03-31T10:51:26.415Z,2.40
2023-03-31T10:53:19.188Z,2.20
2023-03-31T10:55:15.012Z,2.10
2023-03-31T10:57:07.570Z,1.70
2023-03-31T10:59:24.876Z,2.20
2023-03-31T11:01:32.461Z,1.90
2023-03-31T11:04:12.967Z,1.80
2023-03-31T11:06:12.141Z,2.70
2023-03-31T11:08:20.137Z,2.40
2023-03-31T11:10:35.286Z,1.60
2023-03-31T11:12:46.656Z,1.90
2023-03-31T11:14:55.084Z,1.90
2023-03-31T11:16:56.626Z,1.90
2023-03-31T11:19:13.002Z,2.00
2023-03-31T11:21:43.594Z,1.70
2023-03-31T11:23:53.777Z,1.70
2023-03-31T11:26:04.235Z,1.90
2023-03-31T11:28:01.482Z,1.90
2023-03-31T11:30:04.616Z,2.30
2023-03-31T11:32:09.625Z,2.00
2023-03-31T11:34:21.324Z,2.20
2023-03-31T11:36:38.610Z,5.80
2023-03-31T11:39:00.284Z,1.80
2023-03-31T11:41:29.349Z,2.20
2023-03-31T11:43:21.286Z,1.90
2023-03-31T11:45:17.161Z,2.30
2023-03-31T11:47:17.284Z,2.00
2023-03-31T11:49:13.798Z,2.00
2023-03-31T11:51:10.622Z,2.50
2023-03-31T11:53:04.340Z,2.50
2023-03-31T11:55:01.610Z,2.00
2023-03-31T11:56:56.806Z,1.40
2023-03-31T11:58:57.694Z,2.20
2023-03-31T12:01:03.142Z,2.10
2023-03-31T12:03:01.079Z,2.30
2023-03-31T12:04:56.141Z,2.80
2023-03-31T12:06:49.675Z,3.10
2023-03-31T12:08:50.622Z,1.80
2023-03-31T12:10:46.925Z,2.00
2023-03-31T12:13:19.997Z,2.40
2023-03-31T12:15:22.429Z,2.10
2023-03-31T12:17:17.366Z,2.20
2023-03-31T12:19:16.692Z,1.80
2023-03-31T12:21:10.042Z,2.80
2023-03-31T12:23:02.847Z,2.40
2023-03-31T12:24:54.818Z,1.70
2023-03-31T12:26:59.076Z,2.20
2023-03-31T12:28:56.435Z,1.70
2023-03-31T12:30:48.627Z,1.90
2023-03-31T12:34:33.362Z,1.30
2023-03-31T12:36:45.853Z,1.50
2023-03-31T12:39:04.412Z,1.80
2023-03-31T12:41:04.944Z,2.00
2023-03-31T12:43:14.884Z,1.60
2023-03-31T12:45:14.802Z,1.80
2023-03-31T12:47:18.860Z,1.60
2023-03-31T12:49:25.933Z,1.60
2023-03-31T12:51:28.541Z,1.50
2023-03-31T12:53:30.548Z,1.70
2023-03-31T12:55:43.266Z,1.50
2023-03-31T12:57:35.765Z,1.70
2023-03-31T12:59:37.644Z,2.40
2023-03-31T13:01:29.491Z,2.00
2023-03-31T13:03:55.426Z,1.70
2023-03-31T13:05:47.886Z,1.80
2023-03-31T13:09:45.126Z,2.00
2023-03-31T13:11:39.606Z,0.80
2023-03-31T13:13:31.333Z,2.00
2023-03-31T13:15:23.798Z,1.80
2023-03-31T13:17:29.100Z,2.00
2023-03-31T13:19:27.934Z,1.40
2023-03-31T13:21:19.498Z,1.70
2023-03-31T13:23:19.687Z,2.40
2023-03-31T13:25:43.136Z,2.70
2023-03-31T13:27:34.894Z,1.70
2023-03-31T13:29:41.222Z,1.80
2023-03-31T13:32:02.230Z,2.20
2023-03-31T13:34:00.242Z,2.50
2023-03-31T13:36:15.796Z,2.10
2023-03-31T13:38:20.046Z,2.10
2023-03-31T13:40:54.811Z,3.10
2023-03-31T13:43:10.960Z,2.80
2023-03-31T13:45:08.935Z,3.00
2023-03-31T13:47:39.558Z,3.30
2023-03-31T13:49:42.410Z,2.80
2023-03-31T13:51:51.603Z,3.00
2023-03-31T13:53:54.525Z,3.10
2023-03-31T13:55:46.717Z,3.70
2023-03-31T13:57:44.548Z,5.50
2023-03-31T14:00:01.636Z,7.00
2023-03-31T14:02:21.376Z,6.30
2023-03-31T14:04:37.017Z,4.40
2023-03-31T14:08:49.975Z,3.80
2023-03-31T14:10:43.099Z,3.60
2023-03-31T14:12:38.478Z,4.00
2023-03-31T14:14:30.330Z,4.00
2023-03-31T14:16:22.185Z,4.10
2023-03-31T14:18:19.300Z,3.60
2023-03-31T14:20:24.544Z,3.30
2023-03-31T14:22:24.342Z,3.40
2023-03-31T14:24:31.643Z,3.70
2023-03-31T14:26:47.682Z,4.50
2023-03-31T14:29:13.742Z,4.10
2023-03-31T14:31:20.947Z,3.80
2023-03-31T14:33:49.625Z,4.70
2023-03-31T14:35:50.435Z,4.40
2023-03-31T14:37:42.249Z,4.00
2023-03-31T14:39:38.165Z,3.20
2023-03-31T14:41:30.197Z,3.30
2023-03-31T14:43:26.731Z,3.30
2023-03-31T14:45:24.941Z,3.50
2023-03-31T14:47:21.974Z,2.80
2023-03-31T14:49:22.303Z,2.90
2023-03-31T14:51:16.143Z,2.80
2023-03-31T14:53:15.604Z,3.00
2023-03-31T14:55:15.505Z,3.10
2023-03-31T14:57:07.784Z,3.30
2023-03-31T14:59:00.286Z,3.00
2023-03-31T15:00:53.383Z,3.30
2023-03-31T15:02:46.133Z,3.60
2023-03-31T15:04:45.151Z,3.10
2023-03-31T15:06:39.990Z,3.70
2023-03-31T15:08:32.556Z,3.90
2023-03-31T15:10:24.199Z,4.50
2023-03-31T15:12:18.706Z,5.30
2023-03-31T15:14:10.419Z,4.30
2023-03-31T15:16:22.050Z,4.50
2023-03-31T15:18:15.394Z,2.70
2023-03-31T15:20:28.098Z,4.00
2023-03-31T15:22:19.521Z,2.50
2023-03-31T15:24:14.592Z,3.20
2023-03-31T15:26:09.612Z,3.50
2023-03-31T15:28:05.403Z,3.20
2023-03-31T15:29:58.543Z,2.60
2023-03-31T15:31:50.732Z,3.90
2023-03-31T15:33:42.783Z,3.30
2023-03-31T15:35:36.083Z,1.70
2023-03-31T15:37:32.767Z,2.20
2023-03-31T15:39:30.490Z,1.80
2023-03-31T15:41:22.905Z,0.90
2023-03-31T15:45:20.826Z,2.50
2023-03-31T15:47:29.540Z,2.10
2023-03-31T15:49:24.035Z,2.10
2023-03-31T15:51:25.567Z,2.00
2023-03-31T15:53:28.588Z,2.30
2023-03-31T15:55:23.279Z,2.60
2023-03-31T15:57:19.937Z,2.40
2023-03-31T15:59:34.424Z,2.00
2023-03-31T16:01:43.980Z,3.00
2023-03-31T16:03:38.710Z,1.80
2023-03-31T16:05:53.485Z,2.90
2023-03-31T16:07:46.834Z,2.30
2023-03-31T16:09:54.359Z,2.00
2023-03-31T16:11:52.460Z,1.90
2023-03-31T16:13:48.804Z,2.10
2023-03-31T16:15:44.087Z,3.10
2023-03-31T16:17:37.126Z,2.50
2023-03-31T16:19:32.178Z,2.80
2023-03-31T16:21:28.895Z,3.70
2023-03-31T16:23:24.495Z,3.20
2023-03-31T16:25:22.415Z,4.00
2023-03-31T16:27:14.521Z,2.70
2023-03-31T16:29:06.746Z,4.50
2023-03-31T16:31:02.024Z,4.90
2023-03-31T16:33:03.889Z,2.50
2023-03-31T16:35:00.662Z,5.30
2023-03-31T16:36:52.383Z,4.90
2023-03-31T16:38:43.811Z,4.90
2023-03-31T16:40:38.092Z,5.30
2023-03-31T16:42:29.528Z,5.60
2023-03-31T16:44:21.290Z,5.20
2023-03-31T16:46:12.839Z,5.60
2023-03-31T16:48:15.575Z,5.80
2023-03-31T16:50:08.689Z,6.90
2023-03-31T16:52:00.354Z,6.70
2023-03-31T16:53:52.563Z,6.90
2023-03-31T16:55:44.676Z,7.30
2023-03-31T16:57:36.567Z,7.80
2023-03-31T16:59:28.451Z,8.10
2023-03-31T17:01:20.682Z,7.50
2023-03-31T17:03:13.922Z,7.70
2023-03-31T17:05:12.520Z,7.80
2023-03-31T17:07:05.651Z,10.30
2023-03-31T17:08:57.533Z,12.60
2023-03-31T17:11:00.227Z,12.40
2023-03-31T17:12:51.623Z,10.80
2023-03-31T17:14:43.305Z,10.00
2023-03-31T17:16:47.463Z,8.70
2023-03-31T17:18:40.419Z,7.10
2023-03-31T17:20:32.893Z,6.10
2023-03-31T17:22:24.244Z,5.50
2023-03-31T17:24:15.571Z,6.70
2023-03-31T17:26:12.535Z,9.00
2023-03-31T17:28:04.863Z,7.40
2023-03-31T17:29:56.886Z,6.50
2023-03-31T17:31:48.684Z,6.30
2023-03-31T17:33:40.617Z,9.90
2023-03-31T17:35:32.582Z,14.50
2023-03-31T17:37:24.546Z,13.00
2023-03-31T17:39:16.644Z,14.90
2023-03-31T17:41:12.841Z,15.90
2023-03-31T17:43:04.643Z,17.50
2023-03-31T17:44:58.600Z,15.70
2023-03-31T17:46:50.967Z,16.20
2023-03-31T17:48:43.454Z,15.60
2023-03-31T17:50:36.666Z,18.70
2023-03-31T17:52:28.606Z,17.90
2023-03-31T17:54:21.514Z,16.60
2023-03-31T17:56:14.364Z,13.80
2023-03-31T17:58:06.575Z,13.80
2023-03-31T17:59:58.083Z,12.80
2023-03-31T18:01:50.950Z,18.20
2023-03-31T18:03:42.699Z,17.50
2023-03-31T18:05:36.241Z,13.10
2023-03-31T18:07:28.893Z,13.30
2023-03-31T18:09:20.592Z,11.10
2023-03-31T18:11:13.362Z,9.40
2023-03-31T18:13:04.766Z,6.70
2023-03-31T18:14:56.752Z,6.70
2023-03-31T18:16:48.405Z,7.40
2023-03-31T18:18:40.666Z,5.90
2023-03-31T18:20:32.738Z,6.70
2023-03-31T18:22:25.967Z,5.00
2023-03-31T18:24:18.842Z,4.70
2023-03-31T18:26:14.270Z,5.00
2023-03-31T18:28:05.767Z,5.30
2023-03-31T18:29:57.533Z,6.20
2023-03-31T18:31:49.117Z,7.40
2023-03-31T18:33:41.744Z,8.50
2023-03-31T18:35:35.035Z,5.40
2023-03-31T18:37:27.432Z,5.00
2023-03-31T18:39:18.831Z,4.60
2023-03-31T18:41:11.323Z,4.40
2023-03-31T18:43:02.803Z,3.50
2023-03-31T18:44:54.612Z,4.70
2023-03-31T18:46:46.205Z,4.20
2023-03-31T18:48:38.646Z,3.90
2023-03-31T18:50:30.686Z,3.90
2023-03-31T18:52:22.503Z,3.50
2023-03-31T18:54:13.786Z,5.30
2023-03-31T18:56:06.299Z,3.80
2023-03-31T18:57:58.106Z,4.00
2023-03-31T18:59:49.757Z,3.60
2023-03-31T19:01:42.184Z,2.80
2023-03-31T19:03:34.387Z,4.60
2023-03-31T19:05:26.517Z,4.70
2023-03-31T19:07:18.008Z,3.10
2023-03-31T19:09:09.652Z,4.80
2023-03-31T19:11:13.182Z,4.90
2023-03-31T19:13:05.073Z,5.40
2023-03-31T19:14:57.220Z,6.20
2023-03-31T19:16:49.472Z,5.40
2023-03-31T19:18:43.716Z,5.00
2023-03-31T19:20:35.400Z,5.80
2023-03-31T19:22:29.815Z,4.90
2023-03-31T19:24:21.083Z,5.20
2023-03-31T19:26:16.109Z,6.30
2023-03-31T19:28:07.434Z,5.40
2023-03-31T19:29:59.361Z,5.00
2023-03-31T19:31:52.109Z,5.60
2023-03-31T19:35:35.767Z,3.80
2023-03-31T19:37:27.413Z,5.50
2023-03-31T19:39:20.064Z,5.80
2023-03-31T19:41:11.615Z,6.40
2023-03-31T19:43:04.019Z,8.50
2023-03-31T19:44:55.772Z,6.20
2023-03-31T19:46:48.257Z,6.40
2023-03-31T19:48:39.646Z,3.40
2023-03-31T19:50:31.718Z,5.60
2023-03-31T19:52:23.585Z,6.90
2023-03-31T19:54:15.647Z,7.90
2023-03-31T19:56:13.435Z,8.70
2023-03-31T19:58:05.002Z,8.00
2023-03-31T19:59:56.859Z,6.50
2023-03-31T20:01:48.887Z,7.20
2023-03-31T20:03:41.022Z,7.60
2023-03-31T20:05:33.057Z,13.40
2023-03-31T20:07:24.713Z,7.10
2023-03-31T20:09:17.407Z,6.80
2023-03-31T20:11:14.261Z,7.40
2023-03-31T20:13:06.771Z,7.20
2023-03-31T20:14:58.738Z,7.70
2023-03-31T20:16:52.820Z,7.90
2023-03-31T20:18:48.233Z,5.70
2023-03-31T20:20:41.138Z,6.10
2023-03-31T20:22:33.442Z,4.40
2023-03-31T20:24:25.032Z,3.60
2023-03-31T20:26:19.059Z,4.00
2023-03-31T20:28:10.853Z,3.70
2023-03-31T20:30:02.789Z,3.10
2023-03-31T20:31:54.526Z,4.50
2023-03-31T20:33:46.681Z,3.40
2023-03-31T20:35:38.412Z,3.20
2023-03-31T20:37:30.436Z,2.70
2023-03-31T20:39:21.997Z,2.30
2023-03-31T20:41:14.751Z,2.70
2023-03-31T20:44:57.765Z,2.50
2023-03-31T20:46:49.775Z,2.50
2023-03-31T20:48:44.030Z,2.60
2023-03-31T20:50:39.429Z,4.10
2023-03-31T20:52:31.541Z,4.80
2023-03-31T20:54:23.497Z,3.90
2023-03-31T20:56:38.016Z,2.90
2023-03-31T20:58:29.809Z,1.50
2023-03-31T21:00:21.442Z,0.80
2023-03-31T21:02:13.197Z,1.10
2023-03-31T21:04:07.125Z,1.10
2023-03-31T21:06:02.782Z,0.90
2023-03-31T21:07:54.753Z,0.50
2023-03-31T21:09:46.226Z,1.20
2023-03-31T21:11:39.363Z,1.50
2023-03-31T21:13:31.917Z,2.60
2023-03-31T21:15:23.391Z,3.10
2023-03-31T21:17:15.725Z,1.90
2023-03-31T21:19:07.897Z,1.30
2023-03-31T21:21:04.930Z,1.30
2023-03-31T21:22:57.390Z,1.80
2023-03-31T21:26:40.884Z,1.60
2023-03-31T21:28:34.368Z,1.60
2023-03-31T21:30:26.083Z,1.60
2023-03-31T21:32:17.938Z,1.60
2023-03-31T21:34:10.885Z,1.40
2023-03-31T21:36:02.489Z,1.30
2023-03-31T21:37:54.099Z,5.00
2023-03-31T21:39:46.826Z,2.00
2023-03-31T21:41:40.621Z,1.30
2023-03-31T21:43:32.095Z,2.00
2023-03-31T21:45:23.996Z,1.30
2023-03-31T21:47:15.419Z,1.50
2023-03-31T21:49:07.282Z,1.60
2023-03-31T21:51:00.887Z,1.50
2023-03-31T21:52:52.512Z,2.00
2023-03-31T21:54:45.066Z,3.10
2023-03-31T21:56:36.965Z,4.50
2023-03-31T21:58:29.275Z,5.40
2023-03-31T22:00:21.339Z,6.70
2023-03-31T22:02:12.698Z,10.50
2023-03-31T22:04:04.135Z,8.90
2023-03-31T22:05:56.722Z,4.90
2023-03-31T22:08:14.578Z,3.80
2023-03-31T22:10:06.357Z,4.40
2023-03-31T22:11:57.404Z,3.50
2023-03-31T22:13:49.153Z,4.40
2023-03-31T22:15:42.254Z,5.00
2023-03-31T22:17:34.014Z,4.40
2023-03-31T22:19:25.503Z,6.50
2023-03-31T22:21:27.411Z,3.90
2023-03-31T22:23:22.429Z,3.60
2023-03-31T22:25:14.077Z,4.40
2023-03-31T22:27:05.260Z,5.50
2023-03-31T22:28:57.436Z,5.20
2023-03-31T22:30:48.978Z,4.40
2023-03-31T22:32:40.583Z,4.60
2023-03-31T22:34:32.510Z,2.30
2023-03-31T22:36:23.992Z,3.40
2023-03-31T22:38:16.671Z,2.70
2023-03-31T22:40:09.516Z,3.40
2023-03-31T22:42:01.234Z,5.50
2023-03-31T22:43:52.897Z,4.00
2023-03-31T22:45:45.124Z,2.30
2023-03-31T22:47:37.024Z,1.50
2023-03-31T22:49:28.884Z,1.50
2023-03-31T22:51:21.145Z,2.20
2023-03-31T22:53:13.193Z,1.70
2023-03-31T22:55:05.520Z,2.80
2023-03-31T22:56:57.786Z,1.90
2023-03-31T22:58:51.340Z,1.70
2023-03-31T23:00:43.310Z,1.10
2023-03-31T23:02:35.122Z,1.60
2023-03-31T23:04:27.526Z,2.10
2023-03-31T23:06:19.533Z,2.10
2023-03-31T23:08:11.681Z,3.50
2023-03-31T23:10:03.741Z,2.60
2023-03-31T23:11:55.843Z,1.80
2023-03-31T23:13:47.707Z,2.90
2023-03-31T23:15:39.100Z,3.00
2023-03-31T23:17:31.321Z,3.20
2023-03-31T23:19:22.949Z,5.00
2023-03-31T23:21:16.351Z,2.60
2023-03-31T23:23:08.399Z,2.50
2023-03-31T23:24:59.670Z,3.50
2023-03-31T23:26:51.129Z,1.80
2023-03-31T23:28:43.254Z,2.70
2023-03-31T23:30:34.483Z,2.30
2023-03-31T23:32:26.540Z,1.90
2023-03-31T23:34:18.446Z,2.40
2023-03-31T23:36:10.502Z,2.70
2023-03-31T23:38:02.024Z,3.00
2023-03-31T23:39:53.528Z,3.50
2023-03-31T23:41:45.300Z,4.00
2023-03-31T23:43:37.038Z,4.40
2023-03-31T23:45:28.873Z,4.90
2023-03-31T23:47:20.831Z,7.30
2023-03-31T23:49:12.166Z,5.00
2023-03-31T23:51:06.118Z,7.00
2023-03-31T23:52:59.543Z,6.10
2023-03-31T23:54:51.737Z,9.20
2023-03-31T23:56:43.415Z,11.00
2023-03-31T23:58:35.870Z,9.90
